sensor_id;sensor_type;location;lat;lon;timestamp;temperature;humidity
69823;SHT31;57119;52.516;13.508;2023-09-08T00:00:31;16.92;95.36
69823;SHT31;57119;52.516;13.508;2023-09-08T00:03:11;16.88;95.02
69823;SHT31;57119;52.516;13.508;2023-09-08T00:05:36;16.87;95.20
69823;SHT31;57119;52.516;13.508;2023-09-08T00:08:02;16.87;95.43
69823;SHT31;57119;52.516;13.508;2023-09-08T00:10:27;16.87;95.35
69823;SHT31;57119;52.516;13.508;2023-09-08T00:12:53;16.84;95.22
69823;SHT31;57119;52.516;13.508;2023-09-08T00:15:18;16.77;95.78
69823;SHT31;57119;52.516;13.508;2023-09-08T00:17:43;16.77;95.62
69823;SHT31;57119;52.516;13.508;2023-09-08T00:20:09;16.79;95.76
69823;SHT31;57119;52.516;13.508;2023-09-08T00:22:35;16.77;95.82
69823;SHT31;57119;52.516;13.508;2023-09-08T00:25:01;16.77;95.41
69823;SHT31;57119;52.516;13.508;2023-09-08T00:27:26;16.76;95.52
69823;SHT31;57119;52.516;13.508;2023-09-08T00:29:52;16.80;95.63
69823;SHT31;57119;52.516;13.508;2023-09-08T00:32:17;16.73;95.66
69823;SHT31;57119;52.516;13.508;2023-09-08T00:34:42;16.63;95.78
69823;SHT31;57119;52.516;13.508;2023-09-08T00:37:08;16.52;96.35
69823;SHT31;57119;52.516;13.508;2023-09-08T00:39:36;16.63;96.08
69823;SHT31;57119;52.516;13.508;2023-09-08T00:42:01;16.60;96.36
69823;SHT31;57119;52.516;13.508;2023-09-08T00:44:26;16.59;96.17
69823;SHT31;57119;52.516;13.508;2023-09-08T00:46:52;16.57;96.38
69823;SHT31;57119;52.516;13.508;2023-09-08T00:49:18;16.52;96.41
69823;SHT31;57119;52.516;13.508;2023-09-08T00:51:44;16.60;96.37
69823;SHT31;57119;52.516;13.508;2023-09-08T00:54:09;16.49;96.43
69823;SHT31;57119;52.516;13.508;2023-09-08T00:56:37;16.50;96.75
69823;SHT31;57119;52.516;13.508;2023-09-08T00:59:03;16.43;96.73
69823;SHT31;57119;52.516;13.508;2023-09-08T01:01:29;16.45;96.58
69823;SHT31;57119;52.516;13.508;2023-09-08T01:03:55;16.33;97.07
69823;SHT31;57119;52.516;13.508;2023-09-08T01:06:21;16.29;97.03
69823;SHT31;57119;52.516;13.508;2023-09-08T01:08:48;16.25;97.54
69823;SHT31;57119;52.516;13.508;2023-09-08T01:11:14;16.19;97.62
69823;SHT31;57119;52.516;13.508;2023-09-08T01:13:39;16.16;97.73
69823;SHT31;57119;52.516;13.508;2023-09-08T01:16:04;16.13;97.92
69823;SHT31;57119;52.516;13.508;2023-09-08T01:18:30;16.09;98.00
69823;SHT31;57119;52.516;13.508;2023-09-08T01:21:11;15.95;98.14
69823;SHT31;57119;52.516;13.508;2023-09-08T01:23:43;16.00;98.10
69823;SHT31;57119;52.516;13.508;2023-09-08T01:26:17;15.87;98.79
69823;SHT31;57119;52.516;13.508;2023-09-08T01:28:48;15.78;98.91
69823;SHT31;57119;52.516;13.508;2023-09-08T01:31:15;15.80;99.41
69823;SHT31;57119;52.516;13.508;2023-09-08T01:33:41;15.70;99.29
69823;SHT31;57119;52.516;13.508;2023-09-08T01:36:07;15.70;99.45
69823;SHT31;57119;52.516;13.508;2023-09-08T01:38:33;15.75;99.33
69823;SHT31;57119;52.516;13.508;2023-09-08T01:40:59;15.71;99.51
69823;SHT31;57119;52.516;13.508;2023-09-08T01:43:25;15.65;99.39
69823;SHT31;57119;52.516;13.508;2023-09-08T01:45:51;15.61;99.71
69823;SHT31;57119;52.516;13.508;2023-09-08T01:48:16;15.54;99.77
69823;SHT31;57119;52.516;13.508;2023-09-08T01:50:42;15.54;99.78
69823;SHT31;57119;52.516;13.508;2023-09-08T01:53:07;15.56;99.91
69823;SHT31;57119;52.516;13.508;2023-09-08T01:55:32;15.47;99.99
69823;SHT31;57119;52.516;13.508;2023-09-08T01:57:58;15.50;99.99
69823;SHT31;57119;52.516;13.508;2023-09-08T02:00:23;15.42;99.99
69823;SHT31;57119;52.516;13.508;2023-09-08T02:02:49;15.50;99.99
69823;SHT31;57119;52.516;13.508;2023-09-08T02:05:15;15.56;99.99
69823;SHT31;57119;52.516;13.508;2023-09-08T02:07:40;15.51;99.99
69823;SHT31;57119;52.516;13.508;2023-09-08T02:10:06;15.47;99.99
69823;SHT31;57119;52.516;13.508;2023-09-08T02:12:32;15.49;99.99
69823;SHT31;57119;52.516;13.508;2023-09-08T02:14:57;15.49;99.99
69823;SHT31;57119;52.516;13.508;2023-09-08T02:17:22;15.44;99.99
69823;SHT31;57119;52.516;13.508;2023-09-08T02:19:48;15.37;99.99
69823;SHT31;57119;52.516;13.508;2023-09-08T02:22:14;15.40;99.99
69823;SHT31;57119;52.516;13.508;2023-09-08T02:24:39;15.43;99.99
69823;SHT31;57119;52.516;13.508;2023-09-08T02:27:05;15.40;99.99
69823;SHT31;57119;52.516;13.508;2023-09-08T02:29:31;15.49;99.99
69823;SHT31;57119;52.516;13.508;2023-09-08T02:31:57;15.50;99.99
69823;SHT31;57119;52.516;13.508;2023-09-08T02:34:23;15.50;99.99
69823;SHT31;57119;52.516;13.508;2023-09-08T02:36:49;15.42;99.99
69823;SHT31;57119;52.516;13.508;2023-09-08T02:39:16;15.33;99.99
69823;SHT31;57119;52.516;13.508;2023-09-08T02:41:42;15.29;99.99
69823;SHT31;57119;52.516;13.508;2023-09-08T02:44:07;15.25;99.99
69823;SHT31;57119;52.516;13.508;2023-09-08T02:46:32;15.27;99.99
69823;SHT31;57119;52.516;13.508;2023-09-08T02:48:58;15.29;99.99
69823;SHT31;57119;52.516;13.508;2023-09-08T02:51:23;15.26;99.99
69823;SHT31;57119;52.516;13.508;2023-09-08T02:53:49;15.22;99.99
69823;SHT31;57119;52.516;13.508;2023-09-08T02:56:14;15.37;99.99
69823;SHT31;57119;52.516;13.508;2023-09-08T02:58:40;15.25;99.99
69823;SHT31;57119;52.516;13.508;2023-09-08T03:01:15;15.23;99.99
69823;SHT31;57119;52.516;13.508;2023-09-08T03:03:42;15.16;99.99
69823;SHT31;57119;52.516;13.508;2023-09-08T03:06:11;15.12;99.99
69823;SHT31;57119;52.516;13.508;2023-09-08T03:08:37;15.23;99.99
69823;SHT31;57119;52.516;13.508;2023-09-08T03:11:03;15.16;99.99
69823;SHT31;57119;52.516;13.508;2023-09-08T03:13:29;15.25;99.99
69823;SHT31;57119;52.516;13.508;2023-09-08T03:15:55;15.22;99.99
69823;SHT31;57119;52.516;13.508;2023-09-08T03:18:22;15.20;99.99
69823;SHT31;57119;52.516;13.508;2023-09-08T03:20:51;15.22;99.99
69823;SHT31;57119;52.516;13.508;2023-09-08T03:23:16;15.22;99.99
69823;SHT31;57119;52.516;13.508;2023-09-08T03:25:43;15.19;99.99
69823;SHT31;57119;52.516;13.508;2023-09-08T03:28:08;15.13;99.99
69823;SHT31;57119;52.516;13.508;2023-09-08T03:30:33;15.02;99.99
69823;SHT31;57119;52.516;13.508;2023-09-08T03:32:59;14.99;99.99
69823;SHT31;57119;52.516;13.508;2023-09-08T03:35:24;15.00;99.99
69823;SHT31;57119;52.516;13.508;2023-09-08T03:37:49;14.87;99.99
69823;SHT31;57119;52.516;13.508;2023-09-08T03:40:15;14.88;99.99
69823;SHT31;57119;52.516;13.508;2023-09-08T03:42:40;14.82;99.99
69823;SHT31;57119;52.516;13.508;2023-09-08T03:45:07;14.82;99.99
69823;SHT31;57119;52.516;13.508;2023-09-08T03:47:33;14.78;99.99
69823;SHT31;57119;52.516;13.508;2023-09-08T03:49:58;14.74;99.99
69823;SHT31;57119;52.516;13.508;2023-09-08T03:52:23;14.69;99.99
69823;SHT31;57119;52.516;13.508;2023-09-08T03:54:49;14.69;99.99
69823;SHT31;57119;52.516;13.508;2023-09-08T03:57:14;14.58;99.99
69823;SHT31;57119;52.516;13.508;2023-09-08T03:59:39;14.64;99.99
69823;SHT31;57119;52.516;13.508;2023-09-08T04:02:05;14.57;99.99
69823;SHT31;57119;52.516;13.508;2023-09-08T04:04:30;14.58;99.99
69823;SHT31;57119;52.516;13.508;2023-09-08T04:06:55;14.50;99.99
69823;SHT31;57119;52.516;13.508;2023-09-08T04:09:21;14.44;99.99
69823;SHT31;57119;52.516;13.508;2023-09-08T04:11:46;14.47;99.99
69823;SHT31;57119;52.516;13.508;2023-09-08T04:14:11;14.41;99.99
69823;SHT31;57119;52.516;13.508;2023-09-08T04:16:37;14.41;99.99
69823;SHT31;57119;52.516;13.508;2023-09-08T04:19:02;14.34;99.99
69823;SHT31;57119;52.516;13.508;2023-09-08T04:21:27;14.27;99.99
69823;SHT31;57119;52.516;13.508;2023-09-08T04:23:53;14.30;99.99
69823;SHT31;57119;52.516;13.508;2023-09-08T04:26:18;14.27;99.99
69823;SHT31;57119;52.516;13.508;2023-09-08T04:28:43;14.26;99.99
69823;SHT31;57119;52.516;13.508;2023-09-08T04:31:09;14.20;99.99
69823;SHT31;57119;52.516;13.508;2023-09-08T04:33:35;14.16;99.99
69823;SHT31;57119;52.516;13.508;2023-09-08T04:36:00;14.16;99.99
69823;SHT31;57119;52.516;13.508;2023-09-08T04:38:25;14.19;99.99
69823;SHT31;57119;52.516;13.508;2023-09-08T04:40:51;14.09;99.99
69823;SHT31;57119;52.516;13.508;2023-09-08T04:43:16;14.12;99.99
69823;SHT31;57119;52.516;13.508;2023-09-08T04:45:41;14.10;99.99
69823;SHT31;57119;52.516;13.508;2023-09-08T04:48:07;14.19;99.99
69823;SHT31;57119;52.516;13.508;2023-09-08T04:50:32;14.23;99.99
69823;SHT31;57119;52.516;13.508;2023-09-08T04:52:58;14.41;99.99
69823;SHT31;57119;52.516;13.508;2023-09-08T04:55:23;14.50;99.99
69823;SHT31;57119;52.516;13.508;2023-09-08T04:57:49;14.45;99.99
69823;SHT31;57119;52.516;13.508;2023-09-08T05:00:14;14.52;99.99
69823;SHT31;57119;52.516;13.508;2023-09-08T05:02:40;14.60;99.99
69823;SHT31;57119;52.516;13.508;2023-09-08T05:05:05;14.64;99.99
69823;SHT31;57119;52.516;13.508;2023-09-08T05:07:31;14.67;99.99
69823;SHT31;57119;52.516;13.508;2023-09-08T05:09:56;14.74;99.99
69823;SHT31;57119;52.516;13.508;2023-09-08T05:12:22;14.87;99.99
69823;SHT31;57119;52.516;13.508;2023-09-08T05:14:47;14.89;99.99
69823;SHT31;57119;52.516;13.508;2023-09-08T05:17:12;14.98;99.99
69823;SHT31;57119;52.516;13.508;2023-09-08T05:19:38;15.02;99.99
69823;SHT31;57119;52.516;13.508;2023-09-08T05:22:05;15.06;99.99
69823;SHT31;57119;52.516;13.508;2023-09-08T05:24:31;15.13;99.99
69823;SHT31;57119;52.516;13.508;2023-09-08T05:26:57;15.13;99.99
69823;SHT31;57119;52.516;13.508;2023-09-08T05:29:22;15.26;99.99
69823;SHT31;57119;52.516;13.508;2023-09-08T05:31:47;15.39;99.99
69823;SHT31;57119;52.516;13.508;2023-09-08T05:34:13;15.50;99.99
69823;SHT31;57119;52.516;13.508;2023-09-08T05:36:38;15.56;99.99
69823;SHT31;57119;52.516;13.508;2023-09-08T05:39:05;15.70;99.99
69823;SHT31;57119;52.516;13.508;2023-09-08T05:41:30;15.77;99.99
69823;SHT31;57119;52.516;13.508;2023-09-08T05:43:57;15.80;99.99
69823;SHT31;57119;52.516;13.508;2023-09-08T05:46:22;15.97;99.99
69823;SHT31;57119;52.516;13.508;2023-09-08T05:48:48;16.05;99.99
69823;SHT31;57119;52.516;13.508;2023-09-08T05:51:14;16.13;99.80
69823;SHT31;57119;52.516;13.508;2023-09-08T05:53:40;16.23;99.71
69823;SHT31;57119;52.516;13.508;2023-09-08T05:56:06;16.30;99.80
69823;SHT31;57119;52.516;13.508;2023-09-08T05:58:32;16.45;99.13
69823;SHT31;57119;52.516;13.508;2023-09-08T06:01:00;16.57;98.98
69823;SHT31;57119;52.516;13.508;2023-09-08T06:03:25;16.67;98.30
69823;SHT31;57119;52.516;13.508;2023-09-08T06:05:51;16.81;98.24
69823;SHT31;57119;52.516;13.508;2023-09-08T06:08:16;16.97;97.26
69823;SHT31;57119;52.516;13.508;2023-09-08T06:10:42;17.11;97.37
69823;SHT31;57119;52.516;13.508;2023-09-08T06:13:07;17.34;96.48
69823;SHT31;57119;52.516;13.508;2023-09-08T06:15:33;17.53;96.16
69823;SHT31;57119;52.516;13.508;2023-09-08T06:17:58;17.87;94.78
69823;SHT31;57119;52.516;13.508;2023-09-08T06:20:23;18.08;94.14
69823;SHT31;57119;52.516;13.508;2023-09-08T06:22:50;18.41;93.47
69823;SHT31;57119;52.516;13.508;2023-09-08T06:25:15;18.81;92.13
69823;SHT31;57119;52.516;13.508;2023-09-08T06:27:41;18.83;91.29
69823;SHT31;57119;52.516;13.508;2023-09-08T06:30:07;19.31;90.62
69823;SHT31;57119;52.516;13.508;2023-09-08T06:32:33;19.31;89.46
69823;SHT31;57119;52.516;13.508;2023-09-08T06:34:58;19.50;88.47
69823;SHT31;57119;52.516;13.508;2023-09-08T06:37:23;19.95;88.23
69823;SHT31;57119;52.516;13.508;2023-09-08T06:39:49;20.12;87.61
69823;SHT31;57119;52.516;13.508;2023-09-08T06:42:14;20.67;85.69
69823;SHT31;57119;52.516;13.508;2023-09-08T06:44:39;20.84;85.81
69823;SHT31;57119;52.516;13.508;2023-09-08T06:47:05;21.19;85.05
69823;SHT31;57119;52.516;13.508;2023-09-08T06:49:32;21.42;84.13
69823;SHT31;57119;52.516;13.508;2023-09-08T06:51:57;21.54;83.57
69823;SHT31;57119;52.516;13.508;2023-09-08T06:54:23;21.45;83.58
69823;SHT31;57119;52.516;13.508;2023-09-08T06:56:48;21.70;83.46
69823;SHT31;57119;52.516;13.508;2023-09-08T06:59:13;22.34;81.16
69823;SHT31;57119;52.516;13.508;2023-09-08T07:01:39;22.24;82.47
69823;SHT31;57119;52.516;13.508;2023-09-08T07:04:04;22.29;80.98
69823;SHT31;57119;52.516;13.508;2023-09-08T07:06:30;22.48;81.57
69823;SHT31;57119;52.516;13.508;2023-09-08T07:08:55;22.44;80.02
69823;SHT31;57119;52.516;13.508;2023-09-08T07:11:20;23.30;79.54
69823;SHT31;57119;52.516;13.508;2023-09-08T07:13:46;22.89;79.13
69823;SHT31;57119;52.516;13.508;2023-09-08T07:16:11;23.62;77.21
69823;SHT31;57119;52.516;13.508;2023-09-08T07:18:37;23.69;77.52
69823;SHT31;57119;52.516;13.508;2023-09-08T07:21:03;23.90;77.05
69823;SHT31;57119;52.516;13.508;2023-09-08T07:23:29;24.12;77.04
69823;SHT31;57119;52.516;13.508;2023-09-08T07:25:54;24.17;76.16
69823;SHT31;57119;52.516;13.508;2023-09-08T07:28:19;24.39;75.07
69823;SHT31;57119;52.516;13.508;2023-09-08T07:30:45;24.46;75.06
69823;SHT31;57119;52.516;13.508;2023-09-08T07:33:10;24.78;74.39
69823;SHT31;57119;52.516;13.508;2023-09-08T07:35:39;24.74;74.87
69823;SHT31;57119;52.516;13.508;2023-09-08T07:38:05;25.33;73.01
69823;SHT31;57119;52.516;13.508;2023-09-08T07:40:32;26.20;71.80
69823;SHT31;57119;52.516;13.508;2023-09-08T07:42:58;26.46;71.73
69823;SHT31;57119;52.516;13.508;2023-09-08T07:45:23;25.40;72.48
69823;SHT31;57119;52.516;13.508;2023-09-08T07:47:48;26.24;70.87
69823;SHT31;57119;52.516;13.508;2023-09-08T07:50:25;27.04;69.99
69823;SHT31;57119;52.516;13.508;2023-09-08T07:52:52;26.36;69.86
69823;SHT31;57119;52.516;13.508;2023-09-08T07:55:17;26.86;69.88
69823;SHT31;57119;52.516;13.508;2023-09-08T07:57:44;26.11;71.21
69823;SHT31;57119;52.516;13.508;2023-09-08T08:00:11;27.44;69.45
69823;SHT31;57119;52.516;13.508;2023-09-08T08:02:46;28.57;67.33
69823;SHT31;57119;52.516;13.508;2023-09-08T08:05:12;29.37;65.47
69823;SHT31;57119;52.516;13.508;2023-09-08T08:07:41;29.91;65.02
69823;SHT31;57119;52.516;13.508;2023-09-08T08:10:07;27.96;66.24
69823;SHT31;57119;52.516;13.508;2023-09-08T08:12:32;27.55;66.82
69823;SHT31;57119;52.516;13.508;2023-09-08T08:14:58;27.51;67.57
69823;SHT31;57119;52.516;13.508;2023-09-08T08:17:26;28.12;66.80
69823;SHT31;57119;52.516;13.508;2023-09-08T08:19:54;28.43;66.34
69823;SHT31;57119;52.516;13.508;2023-09-08T08:22:19;28.47;65.11
69823;SHT31;57119;52.516;13.508;2023-09-08T08:24:45;28.88;64.33
69823;SHT31;57119;52.516;13.508;2023-09-08T08:27:10;29.46;64.59
69823;SHT31;57119;52.516;13.508;2023-09-08T08:29:36;30.62;62.68
69823;SHT31;57119;52.516;13.508;2023-09-08T08:32:01;31.65;60.90
69823;SHT31;57119;52.516;13.508;2023-09-08T08:34:27;31.73;60.93
69823;SHT31;57119;52.516;13.508;2023-09-08T08:36:52;31.93;60.23
69823;SHT31;57119;52.516;13.508;2023-09-08T08:39:18;31.49;60.58
69823;SHT31;57119;52.516;13.508;2023-09-08T08:41:43;32.82;58.32
69823;SHT31;57119;52.516;13.508;2023-09-08T08:44:08;32.81;58.63
69823;SHT31;57119;52.516;13.508;2023-09-08T08:46:35;31.85;59.56
69823;SHT31;57119;52.516;13.508;2023-09-08T08:49:04;32.06;59.48
69823;SHT31;57119;52.516;13.508;2023-09-08T08:51:31;32.67;58.28
69823;SHT31;57119;52.516;13.508;2023-09-08T08:53:57;31.89;58.84
69823;SHT31;57119;52.516;13.508;2023-09-08T08:56:23;31.72;59.75
69823;SHT31;57119;52.516;13.508;2023-09-08T08:58:49;31.20;59.88
69823;SHT31;57119;52.516;13.508;2023-09-08T09:01:18;31.42;60.04
69823;SHT31;57119;52.516;13.508;2023-09-08T09:03:46;30.24;61.60
69823;SHT31;57119;52.516;13.508;2023-09-08T09:06:13;31.24;60.33
69823;SHT31;57119;52.516;13.508;2023-09-08T09:08:41;33.26;57.76
69823;SHT31;57119;52.516;13.508;2023-09-08T09:11:08;32.91;57.30
69823;SHT31;57119;52.516;13.508;2023-09-08T09:13:33;34.00;55.51
69823;SHT31;57119;52.516;13.508;2023-09-08T09:16:00;32.65;56.23
69823;SHT31;57119;52.516;13.508;2023-09-08T09:18:26;34.53;56.18
69823;SHT31;57119;52.516;13.508;2023-09-08T09:20:56;34.29;53.94
69823;SHT31;57119;52.516;13.508;2023-09-08T09:23:29;34.24;54.15
69823;SHT31;57119;52.516;13.508;2023-09-08T09:25:54;34.62;54.26
69823;SHT31;57119;52.516;13.508;2023-09-08T09:28:20;34.34;54.56
69823;SHT31;57119;52.516;13.508;2023-09-08T09:30:47;33.30;56.20
69823;SHT31;57119;52.516;13.508;2023-09-08T09:33:13;35.17;53.28
69823;SHT31;57119;52.516;13.508;2023-09-08T09:35:43;34.34;54.28
69823;SHT31;57119;52.516;13.508;2023-09-08T09:38:09;32.54;55.79
69823;SHT31;57119;52.516;13.508;2023-09-08T09:40:34;34.26;54.27
69823;SHT31;57119;52.516;13.508;2023-09-08T09:43:00;32.79;55.81
69823;SHT31;57119;52.516;13.508;2023-09-08T09:45:26;33.50;55.18
69823;SHT31;57119;52.516;13.508;2023-09-08T09:47:52;33.77;54.39
69823;SHT31;57119;52.516;13.508;2023-09-08T09:50:47;35.18;53.36
69823;SHT31;57119;52.516;13.508;2023-09-08T09:53:14;34.29;54.36
69823;SHT31;57119;52.516;13.508;2023-09-08T09:55:41;34.70;53.28
69823;SHT31;57119;52.516;13.508;2023-09-08T09:58:07;35.37;52.52
69823;SHT31;57119;52.516;13.508;2023-09-08T10:00:34;37.36;50.88
69823;SHT31;57119;52.516;13.508;2023-09-08T10:03:00;35.28;51.63
69823;SHT31;57119;52.516;13.508;2023-09-08T10:05:27;34.87;51.93
69823;SHT31;57119;52.516;13.508;2023-09-08T10:07:53;34.31;52.79
69823;SHT31;57119;52.516;13.508;2023-09-08T10:10:19;36.16;51.84
69823;SHT31;57119;52.516;13.508;2023-09-08T10:12:52;33.84;53.96
69823;SHT31;57119;52.516;13.508;2023-09-08T10:15:22;35.14;52.49
69823;SHT31;57119;52.516;13.508;2023-09-08T10:17:54;36.30;53.74
69823;SHT31;57119;52.516;13.508;2023-09-08T10:20:25;36.77;50.75
69823;SHT31;57119;52.516;13.508;2023-09-08T10:23:00;36.85;50.30
69823;SHT31;57119;52.516;13.508;2023-09-08T10:25:31;36.37;50.29
69823;SHT31;57119;52.516;13.508;2023-09-08T10:28:01;37.40;49.33
69823;SHT31;57119;52.516;13.508;2023-09-08T10:30:26;34.26;53.32
69823;SHT31;57119;52.516;13.508;2023-09-08T10:32:53;37.55;49.56
69823;SHT31;57119;52.516;13.508;2023-09-08T10:35:19;36.58;50.52
69823;SHT31;57119;52.516;13.508;2023-09-08T10:37:45;38.07;49.06
69823;SHT31;57119;52.516;13.508;2023-09-08T10:40:23;37.62;49.57
69823;SHT31;57119;52.516;13.508;2023-09-08T10:42:49;38.76;48.15
69823;SHT31;57119;52.516;13.508;2023-09-08T10:45:30;38.63;47.96
69823;SHT31;57119;52.516;13.508;2023-09-08T10:47:56;37.43;49.49
69823;SHT31;57119;52.516;13.508;2023-09-08T10:50:48;39.51;48.86
69823;SHT31;57119;52.516;13.508;2023-09-08T10:53:18;37.67;48.91
69823;SHT31;57119;52.516;13.508;2023-09-08T10:55:50;37.35;48.49
69823;SHT31;57119;52.516;13.508;2023-09-08T10:58:53;37.11;49.25
69823;SHT31;57119;52.516;13.508;2023-09-08T11:01:16;36.88;49.32
69823;SHT31;57119;52.516;13.508;2023-09-08T11:03:44;37.70;49.31
69823;SHT31;57119;52.516;13.508;2023-09-08T11:06:14;35.85;50.35
69823;SHT31;57119;52.516;13.508;2023-09-08T11:08:42;37.17;50.00
69823;SHT31;57119;52.516;13.508;2023-09-08T11:11:10;38.66;47.43
69823;SHT31;57119;52.516;13.508;2023-09-08T11:13:36;39.61;48.76
69823;SHT31;57119;52.516;13.508;2023-09-08T11:16:01;39.64;46.06
69823;SHT31;57119;52.516;13.508;2023-09-08T11:18:32;38.06;47.89
69823;SHT31;57119;52.516;13.508;2023-09-08T11:21:00;39.71;46.12
69823;SHT31;57119;52.516;13.508;2023-09-08T11:23:26;38.14;47.79
69823;SHT31;57119;52.516;13.508;2023-09-08T11:25:52;40.01;47.13
69823;SHT31;57119;52.516;13.508;2023-09-08T11:28:20;38.84;47.22
69823;SHT31;57119;52.516;13.508;2023-09-08T11:30:47;39.43;46.58
69823;SHT31;57119;52.516;13.508;2023-09-08T11:33:21;38.86;46.94
69823;SHT31;57119;52.516;13.508;2023-09-08T11:35:53;39.14;45.99
69823;SHT31;57119;52.516;13.508;2023-09-08T11:38:24;41.08;45.87
69823;SHT31;57119;52.516;13.508;2023-09-08T11:40:50;40.35;43.98
69823;SHT31;57119;52.516;13.508;2023-09-08T11:43:15;42.04;43.77
69823;SHT31;57119;52.516;13.508;2023-09-08T11:45:42;41.82;44.03
69823;SHT31;57119;52.516;13.508;2023-09-08T11:48:08;39.81;44.42
69823;SHT31;57119;52.516;13.508;2023-09-08T11:50:33;40.94;44.81
69823;SHT31;57119;52.516;13.508;2023-09-08T11:52:59;39.43;44.82
69823;SHT31;57119;52.516;13.508;2023-09-08T11:55:25;38.00;45.82
69823;SHT31;57119;52.516;13.508;2023-09-08T11:57:55;39.91;44.63
69823;SHT31;57119;52.516;13.508;2023-09-08T12:00:23;39.09;45.53
69823;SHT31;57119;52.516;13.508;2023-09-08T12:02:51;40.62;43.53
69823;SHT31;57119;52.516;13.508;2023-09-08T12:05:22;40.83;45.35
69823;SHT31;57119;52.516;13.508;2023-09-08T12:07:53;40.12;44.39
69823;SHT31;57119;52.516;13.508;2023-09-08T12:10:19;41.34;42.97
69823;SHT31;57119;52.516;13.508;2023-09-08T12:12:49;42.27;43.43
69823;SHT31;57119;52.516;13.508;2023-09-08T12:15:47;40.94;43.33
69823;SHT31;57119;52.516;13.508;2023-09-08T12:18:13;39.77;43.03
69823;SHT31;57119;52.516;13.508;2023-09-08T12:20:42;39.24;43.93
69823;SHT31;57119;52.516;13.508;2023-09-08T12:23:19;37.88;45.48
69823;SHT31;57119;52.516;13.508;2023-09-08T12:25:48;39.00;44.81
69823;SHT31;57119;52.516;13.508;2023-09-08T12:28:16;38.98;43.65
69823;SHT31;57119;52.516;13.508;2023-09-08T12:30:42;39.99;43.13
69823;SHT31;57119;52.516;13.508;2023-09-08T12:33:08;37.66;44.99
69823;SHT31;57119;52.516;13.508;2023-09-08T12:35:34;37.74;45.19
69823;SHT31;57119;52.516;13.508;2023-09-08T12:38:02;38.15;46.47
69823;SHT31;57119;52.516;13.508;2023-09-08T12:40:30;39.64;44.48
69823;SHT31;57119;52.516;13.508;2023-09-08T12:42:56;39.29;44.49
69823;SHT31;57119;52.516;13.508;2023-09-08T12:45:23;41.41;43.17
69823;SHT31;57119;52.516;13.508;2023-09-08T12:47:49;42.40;41.79
69823;SHT31;57119;52.516;13.508;2023-09-08T12:50:14;40.02;43.22
69823;SHT31;57119;52.516;13.508;2023-09-08T12:52:40;37.96;45.36
69823;SHT31;57119;52.516;13.508;2023-09-08T12:55:06;40.16;43.88
69823;SHT31;57119;52.516;13.508;2023-09-08T12:57:32;40.81;44.84
69823;SHT31;57119;52.516;13.508;2023-09-08T12:59:58;39.24;45.07
69823;SHT31;57119;52.516;13.508;2023-09-08T13:02:23;40.70;44.29
69823;SHT31;57119;52.516;13.508;2023-09-08T13:04:48;38.84;44.74
69823;SHT31;57119;52.516;13.508;2023-09-08T13:07:17;38.13;45.06
69823;SHT31;57119;52.516;13.508;2023-09-08T13:09:43;37.91;45.68
69823;SHT31;57119;52.516;13.508;2023-09-08T13:12:09;38.15;45.30
69823;SHT31;57119;52.516;13.508;2023-09-08T13:14:35;39.06;44.62
69823;SHT31;57119;52.516;13.508;2023-09-08T13:17:01;40.83;43.12
69823;SHT31;57119;52.516;13.508;2023-09-08T13:19:26;38.10;43.39
69823;SHT31;57119;52.516;13.508;2023-09-08T13:21:52;37.67;45.50
69823;SHT31;57119;52.516;13.508;2023-09-08T13:24:17;39.17;43.83
69823;SHT31;57119;52.516;13.508;2023-09-08T13:26:42;40.90;43.71
69823;SHT31;57119;52.516;13.508;2023-09-08T13:29:08;42.03;43.59
69823;SHT31;57119;52.516;13.508;2023-09-08T13:31:33;39.57;42.78
69823;SHT31;57119;52.516;13.508;2023-09-08T13:33:58;39.74;43.84
69823;SHT31;57119;52.516;13.508;2023-09-08T13:36:24;38.99;44.20
69823;SHT31;57119;52.516;13.508;2023-09-08T13:38:49;39.50;43.20
69823;SHT31;57119;52.516;13.508;2023-09-08T13:41:15;36.71;45.83
69823;SHT31;57119;52.516;13.508;2023-09-08T13:43:40;39.56;45.27
69823;SHT31;57119;52.516;13.508;2023-09-08T13:46:06;39.27;43.52
69823;SHT31;57119;52.516;13.508;2023-09-08T13:48:31;40.90;41.69
69823;SHT31;57119;52.516;13.508;2023-09-08T13:51:01;40.56;41.68
69823;SHT31;57119;52.516;13.508;2023-09-08T13:53:28;37.11;45.12
69823;SHT31;57119;52.516;13.508;2023-09-08T13:55:53;37.60;44.36
69823;SHT31;57119;52.516;13.508;2023-09-08T13:58:18;38.14;43.85
69823;SHT31;57119;52.516;13.508;2023-09-08T14:00:44;39.00;42.62
69823;SHT31;57119;52.516;13.508;2023-09-08T14:03:09;41.60;41.46
69823;SHT31;57119;52.516;13.508;2023-09-08T14:05:34;40.98;41.50
69823;SHT31;57119;52.516;13.508;2023-09-08T14:08:00;40.23;41.72
69823;SHT31;57119;52.516;13.508;2023-09-08T14:10:25;40.01;41.91
69823;SHT31;57119;52.516;13.508;2023-09-08T14:12:50;39.79;42.98
69823;SHT31;57119;52.516;13.508;2023-09-08T14:15:16;40.39;42.14
69823;SHT31;57119;52.516;13.508;2023-09-08T14:17:41;38.47;44.36
69823;SHT31;57119;52.516;13.508;2023-09-08T14:20:07;39.31;42.53
69823;SHT31;57119;52.516;13.508;2023-09-08T14:22:33;37.69;43.58
69823;SHT31;57119;52.516;13.508;2023-09-08T14:24:59;37.07;44.70
69823;SHT31;57119;52.516;13.508;2023-09-08T14:27:24;39.50;42.63
69823;SHT31;57119;52.516;13.508;2023-09-08T14:29:49;38.25;43.38
69823;SHT31;57119;52.516;13.508;2023-09-08T14:32:15;38.38;43.62
69823;SHT31;57119;52.516;13.508;2023-09-08T14:34:40;37.03;44.48
69823;SHT31;57119;52.516;13.508;2023-09-08T14:37:06;38.00;43.04
69823;SHT31;57119;52.516;13.508;2023-09-08T14:39:32;37.87;42.89
69823;SHT31;57119;52.516;13.508;2023-09-08T14:41:57;36.82;44.52
69823;SHT31;57119;52.516;13.508;2023-09-08T14:44:23;38.34;44.02
69823;SHT31;57119;52.516;13.508;2023-09-08T14:46:48;38.86;42.63
69823;SHT31;57119;52.516;13.508;2023-09-08T14:49:14;36.47;44.68
69823;SHT31;57119;52.516;13.508;2023-09-08T14:51:40;39.46;42.31
69823;SHT31;57119;52.516;13.508;2023-09-08T14:54:06;39.74;44.08
69823;SHT31;57119;52.516;13.508;2023-09-08T14:56:31;40.15;43.14
69823;SHT31;57119;52.516;13.508;2023-09-08T14:58:56;37.32;44.45
69823;SHT31;57119;52.516;13.508;2023-09-08T15:01:22;38.75;43.65
69823;SHT31;57119;52.516;13.508;2023-09-08T15:03:47;35.75;45.38
69823;SHT31;57119;52.516;13.508;2023-09-08T15:06:12;36.85;45.79
69823;SHT31;57119;52.516;13.508;2023-09-08T15:08:38;36.10;46.20
69823;SHT31;57119;52.516;13.508;2023-09-08T15:11:07;35.68;46.83